F/V Kefeleg Ar Mor — FGIK — position and weather

sailwx.info

Track history (hours):
 
Tides and Currents Weather Stations Pressure Air Temp Water Temp Dewpoint Dewpoint Depression Visibility Wind Speed Wind Dir Waves Ship Positions

F/V Kefeleg Ar Mor

Last reported at 2017-Sep-21 18:01 UTC. Time now 2017-Sep-23 07:44 UTC.
Position N 47°21' W 002°31'.

Length 20 m.

Type: Fishing. MMSI: 227852000.

Date/timePositionNaut miles runAvg speedWind from/ knotsBaromVisibWave heightAir tempDewpointWater temp
2017-Sep-21 18:01N 47°21' W 002°31'0 0.1
2017-Sep-21 17:30N 47°21' W 002°31'0 0.0
2017-Sep-21 17:00N 47°21' W 002°31'3 5.2
2017-Sep-21 16:29N 47°20' W 002°34'5 9.4
2017-Sep-21 15:59N 47°17' W 002°41'510.0
2017-Sep-21 15:29N 47°14' W 002°46'8 4.6
2017-Sep-21 13:41N 47°09' W 002°56'2 0.5
2017-Sep-21 09:23N 47°08' W 002°58'1 3.2
2017-Sep-21 08:56N 47°08' W 002°56'1 2.1
2017-Sep-21 08:30N 47°08' W 002°55'1 2.1
2017-Sep-21 07:58N 47°08' W 002°57'1 2.4
2017-Sep-21 07:23N 47°08' W 002°59'1 2.9
2017-Sep-21 06:59N 47°09' W 002°58'2 3.4
2017-Sep-21 06:29N 47°10' W 002°56'2 3.3
2017-Sep-21 05:48N 47°11' W 002°53'1 2.7
2017-Sep-21 05:29N 47°10' W 002°52'2 2.3
2017-Sep-21 04:43N 47°09' W 002°52'1 2.8
2017-Sep-21 04:29N 47°08' W 002°53'2 2.9
2017-Sep-21 03:48N 47°06' W 002°54'1 3.0
2017-Sep-21 03:25N 47°05' W 002°55'1 3.1
2017-Sep-21 03:00N 47°05' W 002°56'1 2.9
2017-Sep-21 02:30N 47°06' W 002°58'2 2.8
2017-Sep-21 01:57N 47°07' W 002°59'1 2.5
2017-Sep-21 01:29N 47°09' W 002°59'1 1.7
2017-Sep-21 00:59N 47°09' W 002°59'1 2.5
2017-Sep-21 00:26N 47°10' W 002°57'1 2.5
2017-Sep-21 00:00N 47°11' W 002°56'1 2.6
2017-Sep-20 23:28N 47°11' W 002°54'1 2.8
2017-Sep-20 23:00N 47°11' W 002°52'2 2.7
2017-Sep-20 22:27N 47°10' W 002°52'1 3.0
2017-Sep-20 21:59N 47°09' W 002°53'1 2.0
2017-Sep-20 21:28N 47°08' W 002°54'2 2.6
2017-Sep-20 20:42N 47°07' W 002°57'1 2.5
2017-Sep-20 20:25N 47°07' W 002°58'1 2.7
2017-Sep-20 20:00N 47°08' W 002°59'2 3.4
2017-Sep-20 19:30N 47°10' W 002°57'2 3.6
2017-Sep-20 18:54N 47°10' W 002°54'2 3.1
2017-Sep-20 18:22N 47°11' W 002°52'5 2.2
2017-Sep-20 16:00N 47°08' W 002°58'1 2.7
2017-Sep-20 15:30N 47°09' W 002°58'2 0.4
2017-Sep-20 11:48N 47°07' W 002°59'1 2.3
2017-Sep-20 11:30N 47°07' W 002°60'1 2.8
2017-Sep-20 10:59N 47°08' W 003°01'1 2.9
2017-Sep-20 10:30N 47°09' W 003°02'1 2.5
2017-Sep-20 10:00N 47°09' W 003°04'5 2.7
2017-Sep-20 08:16N 47°05' W 003°04'0 1.6
2017-Sep-20 07:59N 47°05' W 003°04'5 3.3
2017-Sep-20 06:36N 47°08' W 002°59'4 3.3
2017-Sep-20 05:26N 47°10' W 002°54'2 3.2
2017-Sep-20 04:58N 47°11' W 002°52'2 3.6
2017-Sep-20 04:22N 47°12' W 002°50'3 8.7
2017-Sep-20 04:00N 47°14' W 002°46'5 9.5
2017-Sep-20 03:30N 47°17' W 002°41'4 7.3
2017-Sep-20 02:58N 47°19' W 002°36'4 0.4
2017-Sep-19 17:08N 47°21' W 002°31'1 8.0
2017-Sep-19 17:01N 47°20' W 002°32'4 8.8
2017-Sep-19 16:30N 47°19' W 002°38'22 4.6
2017-Sep-19 11:44N 47°05' W 003°03'1 2.1
2017-Sep-19 11:24N 47°04' W 003°03'1 3.1
2017-Sep-19 10:59N 47°03' W 003°02'3 0.6
2017-Sep-19 05:58N 47°03' W 002°58'2 3.0
2017-Sep-19 05:19N 47°05' W 002°60'1 3.0
2017-Sep-19 04:55N 47°06' W 003°01'8 1.5
2017-Sep-18 23:22N 46°58' W 002°55'2 3.0
2017-Sep-18 22:45N 46°60' W 002°57'1 2.9
2017-Sep-18 22:20N 47°01' W 002°58'1 2.8
2017-Sep-18 21:58N 47°02' W 002°58'3 0.8
2017-Sep-18 17:46N 46°59' W 002°56'9 0.7
2017-Sep-18 04:27N 47°05' W 002°46'5 9.7
2017-Sep-18 03:57N 47°09' W 002°42'4 9.5
2017-Sep-18 03:30N 47°13' W 002°39'5 9.4
2017-Sep-18 03:00N 47°17' W 002°35'4 9.1
2017-Sep-18 02:31N 47°20' W 002°31'0 0.9
2017-Sep-18 02:00N 47°21' W 002°31'0 0.0
2017-Sep-17 18:14N 47°21' W 002°31'0 0.0
2017-Sep-17 18:00N 47°21' W 002°31'0 0.0
2017-Sep-17 17:30N 47°21' W 002°31'0 0.0
2017-Sep-17 17:00N 47°21' W 002°31'4 7.6
2017-Sep-17 16:29N 47°20' W 002°37'4 8.1
2017-Sep-17 16:00N 47°19' W 002°42'1 2.5
2017-Sep-17 15:30N 47°19' W 002°44'2 3.1
2017-Sep-17 15:00N 47°18' W 002°46'5 2.7
2017-Sep-17 13:06N 47°13' W 002°49'1 1.9
2017-Sep-17 12:37N 47°14' W 002°48'1 3.0
2017-Sep-17 12:11N 47°15' W 002°47'17 0.6
2017-Sep-16 09:34N 47°05' W 002°27'0 8.5
2017-Sep-16 09:30N 47°05' W 002°26'1 2.0
2017-Sep-16 09:00N 47°05' W 002°25'1 2.8
2017-Sep-16 08:30N 47°06' W 002°24'1 2.1
2017-Sep-16 08:00N 47°05' W 002°23'2 3.2
2017-Sep-16 07:22N 47°04' W 002°26'1 2.7
2017-Sep-16 07:00N 47°03' W 002°27'1 1.0
2017-Sep-16 05:54N 47°03' W 002°28'1 3.1
2017-Sep-16 05:26N 47°04' W 002°27'2 3.2
2017-Sep-16 04:56N 47°04' W 002°24'3 3.4
2017-Sep-16 03:55N 47°03' W 002°29'26 2.3
2017-Sep-15 16:50N 47°07' W 003°06'1 3.2
2017-Sep-15 16:30N 47°08' W 003°06'3 3.0
2017-Sep-15 15:26N 47°10' W 003°03'11 2.2
2017-Sep-15 10:22N 47°15' W 002°47'1 3.2
2017-Sep-15 09:58N 47°15' W 002°46'3 7.2
2017-Sep-15 09:29N 47°17' W 002°42'4 9.1
2017-Sep-15 09:00N 47°19' W 002°36'4 3.3
2017-Sep-15 07:51N 47°21' W 002°31'0 0.2
2017-Sep-15 07:27N 47°21' W 002°31'0 0.0
2017-Sep-14 15:52N 47°21' W 002°31'0 0.0
2017-Sep-14 12:26N 47°21' W 002°31'0 0.0
2017-Sep-14 07:13N 47°21' W 002°31'0 0.0
2017-Sep-14 07:00N 47°21' W 002°31'0 0.0
2017-Sep-13 13:33N 47°21' W 002°31'0 0.1
2017-Sep-13 13:30N 47°21' W 002°31'0 0.0
2017-Sep-13 12:59N 47°21' W 002°31'0 0.0
2017-Sep-13 12:30N 47°21' W 002°31'0 0.0
2017-Sep-13 09:54N 47°21' W 002°31'  
Track history (hours):
 
Tides and Currents Weather Stations Pressure Air Temp Water Temp Dewpoint Dewpoint Depression Visibility Wind Speed Wind Dir Waves Ship Positions

F/V Kefeleg Ar Mor

Last reported at 2017-Sep-21 18:01 UTC. Time now 2017-Sep-23 07:44 UTC.
Position N 47°21' W 002°31'.

Length 20 m.

Type: Fishing. MMSI: 227852000.

Date/timePositionNaut miles runAvg speedWind from/ knotsBaromVisibWave heightAir tempDewpointWater temp
2017-Sep-21 18:01N 47°21' W 002°31'0 0.1
2017-Sep-21 17:30N 47°21' W 002°31'0 0.0
2017-Sep-21 17:00N 47°21' W 002°31'3 5.2
2017-Sep-21 16:29N 47°20' W 002°34'5 9.4
2017-Sep-21 15:59N 47°17' W 002°41'510.0
2017-Sep-21 15:29N 47°14' W 002°46'8 4.6
2017-Sep-21 13:41N 47°09' W 002°56'2 0.5
2017-Sep-21 09:23N 47°08' W 002°58'1 3.2
2017-Sep-21 08:56N 47°08' W 002°56'1 2.1
2017-Sep-21 08:30N 47°08' W 002°55'1 2.1
2017-Sep-21 07:58N 47°08' W 002°57'1 2.4
2017-Sep-21 07:23N 47°08' W 002°59'1 2.9
2017-Sep-21 06:59N 47°09' W 002°58'2 3.4
2017-Sep-21 06:29N 47°10' W 002°56'2 3.3
2017-Sep-21 05:48N 47°11' W 002°53'1 2.7
2017-Sep-21 05:29N 47°10' W 002°52'2 2.3
2017-Sep-21 04:43N 47°09' W 002°52'1 2.8
2017-Sep-21 04:29N 47°08' W 002°53'2 2.9
2017-Sep-21 03:48N 47°06' W 002°54'1 3.0
2017-Sep-21 03:25N 47°05' W 002°55'1 3.1
2017-Sep-21 03:00N 47°05' W 002°56'1 2.9
2017-Sep-21 02:30N 47°06' W 002°58'2 2.8
2017-Sep-21 01:57N 47°07' W 002°59'1 2.5
2017-Sep-21 01:29N 47°09' W 002°59'1 1.7
2017-Sep-21 00:59N 47°09' W 002°59'1 2.5
2017-Sep-21 00:26N 47°10' W 002°57'1 2.5
2017-Sep-21 00:00N 47°11' W 002°56'1 2.6
2017-Sep-20 23:28N 47°11' W 002°54'1 2.8
2017-Sep-20 23:00N 47°11' W 002°52'2 2.7
2017-Sep-20 22:27N 47°10' W 002°52'1 3.0
2017-Sep-20 21:59N 47°09' W 002°53'1 2.0
2017-Sep-20 21:28N 47°08' W 002°54'2 2.6
2017-Sep-20 20:42N 47°07' W 002°57'1 2.5
2017-Sep-20 20:25N 47°07' W 002°58'1 2.7
2017-Sep-20 20:00N 47°08' W 002°59'2 3.4
2017-Sep-20 19:30N 47°10' W 002°57'2 3.6
2017-Sep-20 18:54N 47°10' W 002°54'2 3.1
2017-Sep-20 18:22N 47°11' W 002°52'5 2.2
2017-Sep-20 16:00N 47°08' W 002°58'1 2.7
2017-Sep-20 15:30N 47°09' W 002°58'2 0.4
2017-Sep-20 11:48N 47°07' W 002°59'1 2.3
2017-Sep-20 11:30N 47°07' W 002°60'1 2.8
2017-Sep-20 10:59N 47°08' W 003°01'1 2.9
2017-Sep-20 10:30N 47°09' W 003°02'1 2.5
2017-Sep-20 10:00N 47°09' W 003°04'5 2.7
2017-Sep-20 08:16N 47°05' W 003°04'0 1.6
2017-Sep-20 07:59N 47°05' W 003°04'5 3.3
2017-Sep-20 06:36N 47°08' W 002°59'4 3.3
2017-Sep-20 05:26N 47°10' W 002°54'2 3.2
2017-Sep-20 04:58N 47°11' W 002°52'2 3.6
2017-Sep-20 04:22N 47°12' W 002°50'3 8.7
2017-Sep-20 04:00N 47°14' W 002°46'5 9.5
2017-Sep-20 03:30N 47°17' W 002°41'4 7.3
2017-Sep-20 02:58N 47°19' W 002°36'4 0.4
2017-Sep-19 17:08N 47°21' W 002°31'1 8.0
2017-Sep-19 17:01N 47°20' W 002°32'4 8.8
2017-Sep-19 16:30N 47°19' W 002°38'22 4.6
2017-Sep-19 11:44N 47°05' W 003°03'1 2.1
2017-Sep-19 11:24N 47°04' W 003°03'1 3.1
2017-Sep-19 10:59N 47°03' W 003°02'3 0.6
2017-Sep-19 05:58N 47°03' W 002°58'2 3.0
2017-Sep-19 05:19N 47°05' W 002°60'1 3.0
2017-Sep-19 04:55N 47°06' W 003°01'8 1.5
2017-Sep-18 23:22N 46°58' W 002°55'2 3.0
2017-Sep-18 22:45N 46°60' W 002°57'1 2.9
2017-Sep-18 22:20N 47°01' W 002°58'1 2.8
2017-Sep-18 21:58N 47°02' W 002°58'3 0.8
2017-Sep-18 17:46N 46°59' W 002°56'9 0.7
2017-Sep-18 04:27N 47°05' W 002°46'5 9.7
2017-Sep-18 03:57N 47°09' W 002°42'4 9.5
2017-Sep-18 03:30N 47°13' W 002°39'5 9.4
2017-Sep-18 03:00N 47°17' W 002°35'4 9.1
2017-Sep-18 02:31N 47°20' W 002°31'0 0.9
2017-Sep-18 02:00N 47°21' W 002°31'0 0.0
2017-Sep-17 18:14N 47°21' W 002°31'0 0.0
2017-Sep-17 18:00N 47°21' W 002°31'0 0.0
2017-Sep-17 17:30N 47°21' W 002°31'0 0.0
2017-Sep-17 17:00N 47°21' W 002°31'4 7.6
2017-Sep-17 16:29N 47°20' W 002°37'4 8.1
2017-Sep-17 16:00N 47°19' W 002°42'1 2.5
2017-Sep-17 15:30N 47°19' W 002°44'2 3.1
2017-Sep-17 15:00N 47°18' W 002°46'5 2.7
2017-Sep-17 13:06N 47°13' W 002°49'1 1.9
2017-Sep-17 12:37N 47°14' W 002°48'1 3.0
2017-Sep-17 12:11N 47°15' W 002°47'17 0.6
2017-Sep-16 09:34N 47°05' W 002°27'0 8.5
2017-Sep-16 09:30N 47°05' W 002°26'1 2.0
2017-Sep-16 09:00N 47°05' W 002°25'1 2.8
2017-Sep-16 08:30N 47°06' W 002°24'1 2.1
2017-Sep-16 08:00N 47°05' W 002°23'2 3.2
2017-Sep-16 07:22N 47°04' W 002°26'1 2.7
2017-Sep-16 07:00N 47°03' W 002°27'1 1.0
2017-Sep-16 05:54N 47°03' W 002°28'1 3.1
2017-Sep-16 05:26N 47°04' W 002°27'2 3.2
2017-Sep-16 04:56N 47°04' W 002°24'3 3.4
2017-Sep-16 03:55N 47°03' W 002°29'26 2.3
2017-Sep-15 16:50N 47°07' W 003°06'1 3.2
2017-Sep-15 16:30N 47°08' W 003°06'3 3.0
2017-Sep-15 15:26N 47°10' W 003°03'11 2.2
2017-Sep-15 10:22N 47°15' W 002°47'1 3.2
2017-Sep-15 09:58N 47°15' W 002°46'3 7.2
2017-Sep-15 09:29N 47°17' W 002°42'4 9.1
2017-Sep-15 09:00N 47°19' W 002°36'4 3.3
2017-Sep-15 07:51N 47°21' W 002°31'0 0.2
2017-Sep-15 07:27N 47°21' W 002°31'0 0.0
2017-Sep-14 15:52N 47°21' W 002°31'0 0.0
2017-Sep-14 12:26N 47°21' W 002°31'0 0.0
2017-Sep-14 07:13N 47°21' W 002°31'0 0.0
2017-Sep-14 07:00N 47°21' W 002°31'0 0.0
2017-Sep-13 13:33N 47°21' W 002°31'0 0.1
2017-Sep-13 13:30N 47°21' W 002°31'0 0.0
2017-Sep-13 12:59N 47°21' W 002°31'0 0.0
2017-Sep-13 12:30N 47°21' W 002°31'0 0.0
2017-Sep-13 09:54N 47°21' W 002°31'  

Dump ship's entire track history